FOON/MVB METAR and TAF weather

Enter ICAO airport designator
Station Type Date Time Source
FOON METAR 2019/08/21 18:00 UTC NOAA

FOON 211800Z 22003KT 9999 BKN026 26/23 Q1013


Station Type Date Time Source
FOON Decoded METAR 2019/08/21 18:00 UTC NOAA

Station name not available
Aug 21, 2019 - 02:00 PM EDT / 2019.08.21 1800 UTC
Wind: from the SW (220 degrees) at 3 MPH (3 KT):0
Visibility: greater than 7 mile(s):0
Sky conditions: mostly cloudy
Temperature: 78 F (26 C)
Dew Point: 73 F (23 C)
Relative Humidity: 83%
Pressure (altimeter): 29.91 in. Hg (1013 hPa)
ob: FOON 211800Z 22003KT 9999 BKN026 26/23 Q1013
cycle: 18

Station Type Date Time Source
FOON TAF 2012/02/17 18:21 UTC NOAA

TAF TAF FOON 151600Z 1518/1618 20004KT 9999 BKN006
TEMPO 1603/1607 0200 FG OVC002
BECMG 1612/1614 TS SCT015 FEW020CB BKN030

Example: see airport list